Time;durP1;ratioP1;P1;durP2;ratioP2;P2;SDS_P1;SDS_P2;PMS_P1;PMS_P2;Temp;Humidity;BMP_temperature;BMP_pressure;BME280_temperature;BME280_humidity;BME280_pressure;Samples;Min_cycle;Max_cycle;Signal;HPM_P1;HPM_P2
2021/05/03 00:00:09;;;;;;;3.05;1.70;;;;;;;;;;5065694;28;20039;-59
2021/05/03 00:02:35;;;;;;;7.88;1.88;;;;;;;;;;5066207;28;20049;-59
2021/05/03 00:05:01;;;;;;;3.20;1.50;;;;;;;;;;5060635;28;20033;-56
2021/05/03 00:07:27;;;;;;;4.70;1.85;;;;;;;;;;5046621;28;20044;-60
2021/05/03 00:09:53;;;;;;;4.40;1.80;;;;;;;;;;5046919;28;20052;-55
2021/05/03 00:12:20;;;;;;;6.10;2.42;;;;;;;;;;5041551;28;20064;-55
2021/05/03 00:14:46;;;;;;;9.18;4.38;;;;;;;;;;5046972;28;20037;-55
2021/05/03 00:17:17;;;;;;;15.82;6.68;;;;;;;;;;5059553;28;20126;-58
2021/05/03 00:19:43;;;;;;;11.77;4.28;;;;;;;;;;5064926;28;20036;-55
2021/05/03 00:22:09;;;;;;;10.00;3.58;;;;;;;;;;5062070;28;20048;-58
2021/05/03 00:24:35;;;;;;;5.50;2.60;;;;;;;;;;5066479;28;20110;-59
2021/05/03 00:27:02;;;;;;;6.22;2.20;;;;;;;;;;5055863;28;20048;-58
2021/05/03 00:29:28;;;;;;;5.38;2.20;;;;;;;;;;5049086;28;20056;-59
2021/05/03 00:31:54;;;;;;;5.70;2.33;;;;;;;;;;5053115;28;20040;-58
2021/05/03 00:34:21;;;;;;;5.47;1.95;;;;;;;;;;5066108;28;20043;-59
2021/05/03 00:36:47;;;;;;;3.22;1.63;;;;;;;;;;5060794;28;20048;-57
2021/05/03 00:39:13;;;;;;;4.55;1.67;;;;;;;;;;5065303;28;20056;-59
2021/05/03 00:41:39;;;;;;;4.28;2.03;;;;;;;;;;5059022;28;20085;-59
2021/05/03 00:44:05;;;;;;;5.38;2.17;;;;;;;;;;5063562;28;20064;-56
2021/05/03 00:46:31;;;;;;;5.43;2.33;;;;;;;;;;5049739;28;20056;-58
2021/05/03 00:48:57;;;;;;;5.38;2.10;;;;;;;;;;5049562;28;20040;-59
2021/05/03 00:51:24;;;;;;;3.40;1.80;;;;;;;;;;5055861;28;20040;-59
2021/05/03 00:53:50;;;;;;;5.65;1.85;;;;;;;;;;5060120;28;20033;-60
2021/05/03 00:56:17;;;;;;;7.55;2.28;;;;;;;;;;5063242;28;20037;-59
2021/05/03 00:58:43;;;;;;;4.82;1.85;;;;;;;;;;5058895;28;20110;-60
2021/05/03 01:01:10;;;;;;;4.65;2.10;;;;;;;;;;5063671;28;20091;-60
2021/05/03 01:03:36;;;;;;;4.45;2.28;;;;;;;;;;5056740;28;20044;-56
2021/05/03 01:06:03;;;;;;;4.93;2.20;;;;;;;;;;5036105;28;20045;-57
2021/05/03 01:08:29;;;;;;;6.43;2.38;;;;;;;;;;5031019;28;20132;-59
2021/05/03 01:10:55;;;;;;;4.50;1.95;;;;;;;;;;5024266;28;20042;-60
2021/05/03 01:13:21;;;;;;;5.50;2.22;;;;;;;;;;5026511;28;20048;-59
2021/05/03 01:15:47;;;;;;;4.85;2.15;;;;;;;;;;5043068;28;20081;-59
2021/05/03 01:18:13;;;;;;;5.15;2.45;;;;;;;;;;5037956;28;20041;-56
2021/05/03 01:20:40;;;;;;;9.20;2.42;;;;;;;;;;5042468;28;20048;-57
2021/05/03 01:23:07;;;;;;;5.80;2.25;;;;;;;;;;5040462;28;20033;-60
2021/05/03 01:25:34;;;;;;;4.90;2.13;;;;;;;;;;5041208;28;20049;-59
2021/05/03 01:28:01;;;;;;;5.72;2.40;;;;;;;;;;5042058;28;20041;-55
2021/05/03 01:30:31;;;;;;;5.72;2.33;;;;;;;;;;5040523;28;20053;-59
2021/05/03 01:32:57;;;;;;;5.53;2.35;;;;;;;;;;5043256;28;20041;-60
2021/05/03 01:35:23;;;;;;;5.50;2.28;;;;;;;;;;5040379;28;20081;-59
2021/05/03 01:37:53;;;;;;;5.28;2.20;;;;;;;;;;5041558;28;20105;-59
2021/05/03 01:40:20;;;;;;;8.48;2.78;;;;;;;;;;5035161;28;20115;-57
2021/05/03 01:42:48;;;;;;;6.05;2.80;;;;;;;;;;5040599;28;20037;-55
2021/05/03 01:45:17;;;;;;;6.70;2.67;;;;;;;;;;5036797;28;20037;-56
2021/05/03 01:47:43;;;;;;;6.53;2.65;;;;;;;;;;5041197;28;20056;-54
2021/05/03 01:50:09;;;;;;;7.80;2.78;;;;;;;;;;5038281;28;20033;-53
2021/05/03 01:52:37;;;;;;;7.78;3.03;;;;;;;;;;5040451;28;20045;-55
2021/05/03 01:55:04;;;;;;;6.57;2.83;;;;;;;;;;5036509;28;20045;-56
2021/05/03 01:57:31;;;;;;;5.93;2.78;;;;;;;;;;5042276;28;20045;-51
2021/05/03 01:59:57;;;;;;;8.30;2.88;;;;;;;;;;5038537;28;20101;-52
2021/05/03 02:02:23;;;;;;;7.55;2.60;;;;;;;;;;5045666;28;20044;-54
2021/05/03 02:04:49;;;;;;;6.90;3.20;;;;;;;;;;5058295;28;20098;-55
2021/05/03 02:07:16;;;;;;;6.65;2.70;;;;;;;;;;5062181;28;20056;-54
2021/05/03 02:09:42;;;;;;;7.65;2.58;;;;;;;;;;5057520;28;20147;-54
2021/05/03 02:12:08;;;;;;;10.20;3.00;;;;;;;;;;5040616;28;20130;-56
2021/05/03 02:14:36;;;;;;;5.70;2.70;;;;;;;;;;5042094;28;20037;-52
2021/05/03 02:17:04;;;;;;;7.93;3.08;;;;;;;;;;5056867;28;20497;-55
2021/05/03 02:19:30;;;;;;;8.30;2.70;;;;;;;;;;5061740;28;20025;-48
2021/05/03 02:21:56;;;;;;;11.63;2.97;;;;;;;;;;5057379;28;20051;-52
2021/05/03 02:24:22;;;;;;;12.82;2.90;;;;;;;;;;5062086;28;20084;-56
2021/05/03 02:26:49;;;;;;;9.65;3.40;;;;;;;;;;5054746;28;20097;-51
2021/05/03 02:29:15;;;;;;;8.32;3.00;;;;;;;;;;5062650;28;20049;-56
2021/05/03 02:31:42;;;;;;;11.45;3.05;;;;;;;;;;5059354;28;20029;-59
2021/05/03 02:34:08;;;;;;;5.82;2.92;;;;;;;;;;5062924;28;20041;-58
2021/05/03 02:36:34;;;;;;;9.18;2.95;;;;;;;;;;5060382;28;20036;-56
2021/05/03 02:39:00;;;;;;;7.38;2.97;;;;;;;;;;5061601;28;20032;-54
2021/05/03 02:41:28;;;;;;;8.48;2.83;;;;;;;;;;5053220;28;20037;-57
2021/05/03 02:43:54;;;;;;;7.57;2.95;;;;;;;;;;5043812;28;20098;-57
2021/05/03 02:46:21;;;;;;;9.30;3.05;;;;;;;;;;5038864;28;20053;-60
2021/05/03 02:48:48;;;;;;;5.75;2.85;;;;;;;;;;5042028;28;20041;-52
2021/05/03 02:51:14;;;;;;;7.43;3.13;;;;;;;;;;5041858;28;20037;-54
2021/05/03 02:53:40;;;;;;;7.60;3.03;;;;;;;;;;5051372;28;20051;-54
2021/05/03 02:56:09;;;;;;;6.63;2.83;;;;;;;;;;5041580;28;20065;-55
2021/05/03 02:58:35;;;;;;;5.72;2.78;;;;;;;;;;5054308;28;20048;-49
2021/05/03 03:01:01;;;;;;;6.38;2.92;;;;;;;;;;5059078;28;20410;-56
2021/05/03 03:03:27;;;;;;;6.55;3.08;;;;;;;;;;5056377;28;20092;-55
2021/05/03 03:05:53;;;;;;;9.15;3.22;;;;;;;;;;5042513;28;20060;-54
2021/05/03 03:08:19;;;;;;;6.28;2.88;;;;;;;;;;5048898;28;20040;-58
2021/05/03 03:10:45;;;;;;;6.57;2.85;;;;;;;;;;5061297;28;20037;-54
2021/05/03 03:13:11;;;;;;;10.70;2.92;;;;;;;;;;5057621;28;20052;-54
2021/05/03 03:15:38;;;;;;;9.55;3.22;;;;;;;;;;5061468;28;20037;-50
2021/05/03 03:18:04;;;;;;;8.23;3.25;;;;;;;;;;5059951;28;20033;-56
2021/05/03 03:20:30;;;;;;;9.00;3.28;;;;;;;;;;5069071;28;20043;-51
2021/05/03 03:22:57;;;;;;;6.68;3.28;;;;;;;;;;5081931;28;20039;-54
2021/05/03 03:25:26;;;;;;;9.80;3.03;;;;;;;;;;5074773;28;20048;-52
2021/05/03 03:27:52;;;;;;;8.82;3.03;;;;;;;;;;5065168;28;20072;-57
2021/05/03 03:30:19;;;;;;;7.50;3.50;;;;;;;;;;5075282;28;20048;-53
2021/05/03 03:32:45;;;;;;;7.35;2.80;;;;;;;;;;5064879;28;20051;-52
2021/05/03 03:35:12;;;;;;;8.23;2.83;;;;;;;;;;5060818;28;20044;-55
2021/05/03 03:37:38;;;;;;;5.13;2.63;;;;;;;;;;5061266;28;20059;-57
2021/05/03 03:40:06;;;;;;;9.10;3.13;;;;;;;;;;5079545;28;20045;-57
2021/05/03 03:42:32;;;;;;;7.28;2.85;;;;;;;;;;5059480;28;20534;-51
2021/05/03 03:44:58;;;;;;;7.28;3.20;;;;;;;;;;5064430;28;20090;-48
2021/05/03 03:47:24;;;;;;;6.82;3.47;;;;;;;;;;5058907;28;20063;-49
2021/05/03 03:49:50;;;;;;;7.20;2.97;;;;;;;;;;5080567;28;20040;-54
2021/05/03 03:52:16;;;;;;;9.90;3.45;;;;;;;;;;5075764;28;20060;-55
2021/05/03 03:54:42;;;;;;;8.02;3.30;;;;;;;;;;5063262;28;20047;-50
2021/05/03 03:57:09;;;;;;;8.40;3.10;;;;;;;;;;5081313;28;20048;-53
2021/05/03 03:59:42;;;;;;;6.90;3.40;;;;;;;;;;5056731;28;20055;-52
2021/05/03 04:02:08;;;;;;;6.97;3.67;;;;;;;;;;5063733;28;20068;-53
2021/05/03 04:04:37;;;;;;;6.70;3.35;;;;;;;;;;5075031;28;20048;-58
2021/05/03 04:07:10;;;;;;;;;;;;;;;;;;5080553;28;20069;-54
2021/05/03 04:09:42;;;;;;;8.05;2.88;;;;;;;;;;5054812;28;19920;-59
2021/05/03 04:26:15;;;;;;;9.25;4.00;;;;;;;;;;5063117;28;20032;-56
2021/05/03 04:28:41;;;;;;;8.80;3.83;;;;;;;;;;5084044;28;20040;-59
2021/05/03 04:31:08;;;;;;;11.57;3.95;;;;;;;;;;5081253;28;20052;-57
2021/05/03 04:33:34;;;;;;;9.07;3.83;;;;;;;;;;5065538;28;20485;-53
2021/05/03 04:36:01;;;;;;;7.40;3.60;;;;;;;;;;5061660;28;20036;-52
2021/05/03 04:38:27;;;;;;;9.02;4.25;;;;;;;;;;5084660;28;20037;-55
2021/05/03 04:40:53;;;;;;;8.90;4.13;;;;;;;;;;5063138;28;20403;-55
2021/05/03 04:43:20;;;;;;;9.00;3.90;;;;;;;;;;5066155;28;20047;-54
2021/05/03 04:45:47;;;;;;;8.88;3.60;;;;;;;;;;5066409;28;20041;-52
2021/05/03 04:48:16;;;;;;;16.10;4.07;;;;;;;;;;5061201;28;20113;-58
2021/05/03 04:50:42;;;;;;;9.27;4.10;;;;;;;;;;5066316;28;20028;-56
2021/05/03 04:53:08;;;;;;;11.80;4.40;;;;;;;;;;5081090;28;20051;-56
2021/05/03 04:55:35;;;;;;;8.55;4.00;;;;;;;;;;5084961;28;20036;-50
2021/05/03 04:58:01;;;;;;;8.45;3.88;;;;;;;;;;5063117;28;20091;-52
2021/05/03 05:00:27;;;;;;;13.93;4.63;;;;;;;;;;5065554;28;20089;-53
2021/05/03 05:02:54;;;;;;;11.32;3.97;;;;;;;;;;5062852;28;20063;-56
2021/05/03 05:05:22;;;;;;;11.38;4.70;;;;;;;;;;5064344;28;20033;-56
2021/05/03 05:07:48;;;;;;;10.75;4.13;;;;;;;;;;5061001;28;20182;-50
2021/05/03 05:10:14;;;;;;;10.63;3.72;;;;;;;;;;5060423;28;20045;-51
2021/05/03 05:12:41;;;;;;;12.32;4.20;;;;;;;;;;5077271;28;20045;-55
2021/05/03 05:15:07;;;;;;;11.93;4.03;;;;;;;;;;5055351;28;20041;-55
2021/05/03 05:17:34;;;;;;;9.80;4.38;;;;;;;;;;5072377;28;20036;-52
2021/05/03 05:20:01;;;;;;;11.23;4.35;;;;;;;;;;5079488;28;20036;-50
2021/05/03 05:22:28;;;;;;;9.75;4.28;;;;;;;;;;5062596;28;20032;-55
2021/05/03 05:24:54;;;;;;;9.48;4.63;;;;;;;;;;5058025;28;20033;-52
2021/05/03 05:27:20;;;;;;;13.38;4.00;;;;;;;;;;5079404;28;20051;-49
2021/05/03 05:29:46;;;;;;;12.10;4.25;;;;;;;;;;5074689;28;20029;-56
2021/05/03 05:32:12;;;;;;;11.80;4.57;;;;;;;;;;5058462;28;20158;-54
2021/05/03 05:34:38;;;;;;;12.30;4.75;;;;;;;;;;5081779;28;20048;-56
2021/05/03 05:37:04;;;;;;;11.25;4.07;;;;;;;;;;5057719;28;20102;-53
2021/05/03 05:39:31;;;;;;;12.70;4.55;;;;;;;;;;5068830;28;20501;-53
2021/05/03 05:41:57;;;;;;;16.38;4.82;;;;;;;;;;5056177;28;20024;-50
2021/05/03 05:44:23;;;;;;;14.63;5.85;;;;;;;;;;5053583;28;20072;-55
2021/05/03 05:46:51;;;;;;;14.77;4.60;;;;;;;;;;5058745;28;20534;-54
2021/05/03 05:49:17;;;;;;;11.30;4.15;;;;;;;;;;5058899;28;20043;-56
2021/05/03 05:51:43;;;;;;;9.23;4.05;;;;;;;;;;5054930;28;20085;-57
2021/05/03 05:54:09;;;;;;;9.95;4.10;;;;;;;;;;5058266;28;20113;-56
2021/05/03 05:56:37;;;;;;;9.82;3.95;;;;;;;;;;5056722;28;20137;-56
2021/05/03 05:59:02;;;;;;;8.38;3.78;;;;;;;;;;5070011;28;20063;-53
2021/05/03 06:01:28;;;;;;;13.27;3.95;;;;;;;;;;5056341;28;20040;-53
2021/05/03 06:03:54;;;;;;;11.63;4.38;;;;;;;;;;5079432;28;20044;-56
2021/05/03 06:06:21;;;;;;;10.43;4.75;;;;;;;;;;5074554;28;20067;-55
2021/05/03 06:08:47;;;;;;;12.73;3.95;;;;;;;;;;5043734;28;20121;-56
2021/05/03 06:11:13;;;;;;;9.55;3.80;;;;;;;;;;5057872;28;20055;-56
2021/05/03 06:13:40;;;;;;;9.50;3.80;;;;;;;;;;5062851;28;20259;-55
2021/05/03 06:16:07;;;;;;;7.97;3.70;;;;;;;;;;5059371;28;20180;-57
2021/05/03 06:18:33;;;;;;;7.93;3.42;;;;;;;;;;5064369;28;20033;-58
2021/05/03 06:20:59;;;;;;;10.70;3.88;;;;;;;;;;5061583;28;20036;-50
2021/05/03 06:23:25;;;;;;;6.85;3.47;;;;;;;;;;5064431;28;20117;-55
2021/05/03 06:25:52;;;;;;;7.25;3.08;;;;;;;;;;5062031;28;20043;-56
2021/05/03 06:28:19;;;;;;;7.43;3.40;;;;;;;;;;5080897;28;20052;-55
2021/05/03 06:30:46;;;;;;;8.02;3.47;;;;;;;;;;5077730;28;20036;-56
2021/05/03 06:33:12;;;;;;;7.63;3.63;;;;;;;;;;5064812;28;20144;-53
2021/05/03 06:35:38;;;;;;;13.85;3.75;;;;;;;;;;5060471;28;20045;-59
2021/05/03 06:38:06;;;;;;;7.63;3.38;;;;;;;;;;5064314;28;20044;-55
2021/05/03 06:40:32;;;;;;;6.90;3.20;;;;;;;;;;5076580;28;20486;-58
2021/05/03 06:42:58;;;;;;;9.50;3.50;;;;;;;;;;5063490;28;20044;-56
2021/05/03 06:45:25;;;;;;;6.97;3.15;;;;;;;;;;5065683;28;20040;-54
2021/05/03 06:47:52;;;;;;;7.20;3.17;;;;;;;;;;5061108;28;20601;-53
2021/05/03 06:50:19;;;;;;;8.52;3.55;;;;;;;;;;5082008;28;20052;-51
2021/05/03 06:52:45;;;;;;;9.77;3.45;;;;;;;;;;5074541;28;20412;-54
2021/05/03 06:55:17;;;;;;;8.18;3.33;;;;;;;;;;5062110;28;20118;-58
2021/05/03 06:57:44;;;;;;;7.35;3.38;;;;;;;;;;5061839;28;20033;-57
2021/05/03 07:00:11;;;;;;;8.32;3.45;;;;;;;;;;5082739;28;20040;-57
2021/05/03 07:02:37;;;;;;;7.45;3.35;;;;;;;;;;5061158;28;20076;-58
2021/05/03 07:05:05;;;;;;;7.57;3.35;;;;;;;;;;5062820;28;20040;-56
2021/05/03 07:07:31;;;;;;;8.07;3.50;;;;;;;;;;5060407;28;20052;-57
2021/05/03 07:09:57;;;;;;;8.30;3.30;;;;;;;;;;5065377;28;20281;-54
2021/05/03 07:12:25;;;;;;;8.27;3.30;;;;;;;;;;5060937;28;20043;-57
2021/05/03 07:14:51;;;;;;;8.73;3.15;;;;;;;;;;5065164;28;20032;-55
2021/05/03 07:17:17;;;;;;;8.48;3.53;;;;;;;;;;5081133;28;20040;-53
2021/05/03 07:19:43;;;;;;;9.65;3.53;;;;;;;;;;5080844;28;20037;-54
2021/05/03 07:22:10;;;;;;;12.38;3.60;;;;;;;;;;5061816;28;20090;-57
2021/05/03 07:24:37;;;;;;;7.95;3.75;;;;;;;;;;5065105;28;20162;-54
2021/05/03 07:27:04;;;;;;;9.60;4.43;;;;;;;;;;5064321;28;20040;-51
2021/05/03 07:29:30;;;;;;;10.32;4.60;;;;;;;;;;5060200;28;20528;-55
2021/05/03 07:31:56;;;;;;;13.73;4.97;;;;;;;;;;5063980;28;20037;-52
2021/05/03 07:34:22;;;;;;;13.40;5.32;;;;;;;;;;5060468;28;20056;-53
2021/05/03 07:36:48;;;;;;;15.30;6.03;;;;;;;;;;5064923;28;20040;-53
2021/05/03 07:39:15;;;;;;;16.58;6.32;;;;;;;;;;5058799;28;20187;-54
2021/05/03 07:41:41;;;;;;;16.73;5.93;;;;;;;;;;5064724;28;20032;-53
2021/05/03 07:44:08;;;;;;;18.15;7.80;;;;;;;;;;5060626;28;20032;-54
2021/05/03 07:46:35;;;;;;;17.20;8.02;;;;;;;;;;5081665;28;20033;-56
2021/05/03 07:49:01;;;;;;;15.18;7.05;;;;;;;;;;5060611;28;20036;-57
2021/05/03 07:51:27;;;;;;;20.48;8.05;;;;;;;;;;5065489;28;20481;-55
2021/05/03 07:53:53;;;;;;;18.45;8.10;;;;;;;;;;5046452;28;20036;-56
2021/05/03 07:56:20;;;;;;;15.07;6.95;;;;;;;;;;5070399;28;20037;-56
2021/05/03 07:58:47;;;;;;;21.98;9.00;;;;;;;;;;5078920;28;20044;-55
2021/05/03 08:01:13;;;;;;;15.45;7.82;;;;;;;;;;5066354;28;20036;-53
2021/05/03 08:03:41;;;;;;;21.80;9.18;;;;;;;;;;5057371;28;20111;-56
2021/05/03 08:06:09;;;;;;;18.55;8.68;;;;;;;;;;5043936;28;20045;-54
2021/05/03 08:08:35;;;;;;;20.60;8.23;;;;;;;;;;5043223;28;20053;-51
2021/05/03 08:11:01;;;;;;;17.45;9.32;;;;;;;;;;5042260;28;20052;-54
2021/05/03 08:13:31;;;;;;;22.60;9.40;;;;;;;;;;5043713;28;20052;-52
2021/05/03 08:16:00;;;;;;;21.08;9.02;;;;;;;;;;5040023;28;20085;-54
2021/05/03 08:18:26;;;;;;;19.70;8.90;;;;;;;;;;5043462;28;20033;-55
2021/05/03 08:20:53;;;;;;;21.35;9.32;;;;;;;;;;5053425;28;20048;-55
2021/05/03 08:23:19;;;;;;;20.23;9.45;;;;;;;;;;5063758;28;20077;-57
2021/05/03 08:25:47;;;;;;;18.60;8.63;;;;;;;;;;5052697;28;20041;-57
2021/05/03 08:28:13;;;;;;;20.52;9.52;;;;;;;;;;5043124;28;20049;-55
2021/05/03 08:30:40;;;;;;;19.23;9.13;;;;;;;;;;5038220;28;20056;-55
2021/05/03 08:33:06;;;;;;;24.23;9.13;;;;;;;;;;5043289;28;20130;-56
2021/05/03 08:35:32;;;;;;;20.58;9.85;;;;;;;;;;5039739;28;20045;-54
2021/05/03 08:37:58;;;;;;;20.50;9.70;;;;;;;;;;5043474;28;20130;-56
2021/05/03 08:40:24;;;;;;;25.30;10.65;;;;;;;;;;5038364;28;20037;-53
2021/05/03 08:42:50;;;;;;;23.45;8.45;;;;;;;;;;5043624;28;20045;-56
2021/05/03 08:45:17;;;;;;;21.10;10.18;;;;;;;;;;5041581;28;20503;-57
2021/05/03 08:47:55;;;;;;;18.63;9.65;;;;;;;;;;5040863;28;20045;-52
2021/05/03 08:50:28;;;;;;;19.63;9.95;;;;;;;;;;5042671;28;20041;-58
2021/05/03 08:52:56;;;;;;;17.48;9.20;;;;;;;;;;5040384;28;20040;-57
2021/05/03 08:55:22;;;;;;;19.08;8.90;;;;;;;;;;5061744;28;20513;-57
2021/05/03 08:57:48;;;;;;;20.90;10.02;;;;;;;;;;5057577;28;20045;-57
2021/05/03 09:00:16;;;;;;;17.27;9.15;;;;;;;;;;5061854;28;20033;-58
2021/05/03 09:02:44;;;;;;;20.95;8.15;;;;;;;;;;5060144;28;20561;-56
2021/05/03 09:05:12;;;;;;;24.55;9.65;;;;;;;;;;5064050;28;20036;-58
2021/05/03 09:07:46;;;;;;;22.00;8.13;;;;;;;;;;5059938;28;20040;-54
2021/05/03 09:10:13;;;;;;;21.10;8.85;;;;;;;;;;5054958;28;20284;-54
2021/05/03 09:12:39;;;;;;;19.42;9.50;;;;;;;;;;5051071;28;20047;-58
2021/05/03 09:15:06;;;;;;;15.95;7.45;;;;;;;;;;5066037;28;20041;-55
2021/05/03 09:17:33;;;;;;;16.33;8.23;;;;;;;;;;5078381;28;20625;-57
2021/05/03 09:20:04;;;;;;;19.25;8.77;;;;;;;;;;5064829;28;20056;-56
2021/05/03 09:22:35;;;;;;;15.27;7.47;;;;;;;;;;5055114;28;20047;-57
2021/05/03 09:25:15;;;;;;;18.88;8.43;;;;;;;;;;5073177;28;20049;-54
2021/05/03 09:27:41;;;;;;;18.45;8.73;;;;;;;;;;5058247;28;20036;-58
2021/05/03 09:30:07;;;;;;;15.48;8.60;;;;;;;;;;5081942;28;20044;-58
2021/05/03 09:32:33;;;;;;;17.17;8.07;;;;;;;;;;5078493;28;20033;-58
2021/05/03 09:35:00;;;;;;;18.40;8.38;;;;;;;;;;5094252;28;20043;-56
2021/05/03 09:37:29;;;;;;;18.35;8.73;;;;;;;;;;5067894;28;20079;-56
2021/05/03 09:39:57;;;;;;;16.35;7.97;;;;;;;;;;5083273;28;20039;-57
2021/05/03 09:42:24;;;;;;;14.10;6.78;;;;;;;;;;5079886;28;20059;-57
2021/05/03 09:45:06;;;;;;;23.92;9.32;;;;;;;;;;5061471;28;20553;-55
2021/05/03 09:47:33;;;;;;;15.32;7.93;;;;;;;;;;5065346;28;20055;-59
2021/05/03 09:50:05;;;;;;;15.30;7.40;;;;;;;;;;5084624;28;20125;-51
2021/05/03 09:52:31;;;;;;;17.75;9.25;;;;;;;;;;5068886;28;20069;-58
2021/05/03 09:54:57;;;;;;;18.05;8.30;;;;;;;;;;5061896;28;20059;-54
2021/05/03 09:57:23;;;;;;;16.42;7.28;;;;;;;;;;5076954;28;20125;-56
2021/05/03 09:59:52;;;;;;;17.20;7.88;;;;;;;;;;5076749;28;20259;-57
2021/05/03 10:02:20;;;;;;;;;;;;;;;;;;5052197;28;20039;-60
2021/05/03 10:04:47;;;;;;;15.48;7.20;;;;;;;;;;5057477;28;19928;-56
2021/05/03 10:07:17;;;;;;;19.25;8.80;;;;;;;;;;5064427;28;20102;-59
2021/05/03 10:09:46;;;;;;;14.27;7.15;;;;;;;;;;5061345;28;20036;-58
2021/05/03 10:12:11;;;;;;;;;;;;;;;;;;5069759;28;20093;-58
2021/05/03 10:14:37;;;;;;;17.25;8.13;;;;;;;;;;5081001;28;19920;-57
2021/05/03 10:17:04;;;;;;;15.73;7.63;;;;;;;;;;5078423;28;20058;-55
2021/05/03 10:19:30;;;;;;;15.65;7.90;;;;;;;;;;5081656;28;20051;-57
2021/05/03 10:21:58;;;;;;;15.00;7.72;;;;;;;;;;5077834;28;20051;-57
2021/05/03 10:24:25;;;;;;;15.88;7.90;;;;;;;;;;5063455;28;20052;-58
2021/05/03 10:26:52;;;;;;;18.98;7.85;;;;;;;;;;5062354;28;20075;-58
2021/05/03 10:29:24;;;;;;;16.38;8.15;;;;;;;;;;5084460;28;20040;-59
2021/05/03 10:32:00;;;;;;;14.93;7.82;;;;;;;;;;5083966;28;20040;-58
2021/05/03 10:34:39;;;;;;;16.75;7.20;;;;;;;;;;5083962;28;20048;-58
2021/05/03 10:37:25;;;;;;;21.08;7.85;;;;;;;;;;5085002;28;20024;-57
2021/05/03 10:39:52;;;;;;;15.88;6.60;;;;;;;;;;5067261;28;20048;-57
2021/05/03 10:42:18;;;;;;;13.73;6.88;;;;;;;;;;5082853;28;20040;-57
2021/05/03 10:45:05;;;;;;;14.60;6.60;;;;;;;;;;5081321;28;20036;-58
2021/05/03 10:47:35;;;;;;;14.35;6.85;;;;;;;;;;5091910;28;20044;-58
2021/05/03 10:50:01;;;;;;;14.68;7.30;;;;;;;;;;5068657;28;20051;-58
2021/05/03 10:52:32;;;;;;;11.57;6.38;;;;;;;;;;5096273;28;20052;-55
2021/05/03 10:54:59;;;;;;;13.07;5.88;;;;;;;;;;5064713;28;20066;-58
2021/05/03 10:57:38;;;;;;;13.80;6.60;;;;;;;;;;5060681;28;20036;-59
2021/05/03 11:00:12;;;;;;;12.82;6.28;;;;;;;;;;5077615;28;20036;-59
2021/05/03 11:02:46;;;;;;;13.07;6.10;;;;;;;;;;5060399;28;20048;-59
2021/05/03 11:05:13;;;;;;;14.45;6.03;;;;;;;;;;5060696;28;20056;-59
2021/05/03 11:07:57;;;;;;;14.80;6.93;;;;;;;;;;5039482;28;20056;-58
2021/05/03 11:10:38;;;;;;;12.07;6.10;;;;;;;;;;5027541;28;20041;-58
2021/05/03 11:13:19;;;;;;;12.13;6.45;;;;;;;;;;5038241;28;20033;-57
2021/05/03 11:15:46;;;;;;;13.70;6.07;;;;;;;;;;5039401;28;20086;-58
2021/05/03 11:18:20;;;;;;;13.07;6.60;;;;;;;;;;5052250;28;20045;-58
2021/05/03 11:21:05;;;;;;;15.55;6.53;;;;;;;;;;5040859;28;20111;-55
2021/05/03 11:23:34;;;;;;;11.65;5.70;;;;;;;;;;5056413;28;20085;-58
2021/05/03 11:26:01;;;;;;;11.68;5.65;;;;;;;;;;5060413;28;20145;-57
2021/05/03 11:28:33;;;;;;;13.75;5.95;;;;;;;;;;5056729;28;20086;-57
2021/05/03 11:31:10;;;;;;;11.57;5.45;;;;;;;;;;5063508;28;20041;-56
2021/05/03 11:33:40;;;;;;;10.93;5.22;;;;;;;;;;5043057;28;20044;-57
2021/05/03 11:36:15;;;;;;;10.43;5.50;;;;;;;;;;5039855;28;20087;-56
2021/05/03 11:41:34;;;;;;;11.82;5.85;;;;;;;;;;5038165;28;20119;-57
2021/05/03 11:44:14;;;;;;;9.75;4.78;;;;;;;;;;5054732;28;20049;-58
2021/05/03 11:46:44;;;;;;;12.55;5.82;;;;;;;;;;5038160;28;20055;-56
2021/05/03 11:49:15;;;;;;;11.25;5.45;;;;;;;;;;5037732;28;20077;-58
2021/05/03 11:51:42;;;;;;;9.90;5.15;;;;;;;;;;5041334;28;20030;-58
2021/05/03 11:54:22;;;;;;;10.07;5.40;;;;;;;;;;5037408;28;20045;-58
2021/05/03 11:56:53;;;;;;;10.43;5.25;;;;;;;;;;5038603;28;20142;-59
2021/05/03 11:59:19;;;;;;;11.27;5.30;;;;;;;;;;5047904;28;20045;-58
2021/05/03 12:01:56;;;;;;;10.02;5.30;;;;;;;;;;5050524;28;20069;-57
2021/05/03 12:04:30;;;;;;;11.23;4.97;;;;;;;;;;5067644;28;20040;-59
2021/05/03 12:06:57;;;;;;;10.98;4.90;;;;;;;;;;5052238;28;20044;-58
2021/05/03 12:09:23;;;;;;;10.75;5.07;;;;;;;;;;5070872;28;20148;-58
2021/05/03 12:11:56;;;;;;;11.50;5.63;;;;;;;;;;5081787;28;20039;-57
2021/05/03 12:14:37;;;;;;;11.00;5.30;;;;;;;;;;5067637;28;20036;-57
2021/05/03 12:17:14;;;;;;;13.55;6.00;;;;;;;;;;5050687;28;20033;-59
2021/05/03 12:19:42;;;;;;;13.60;5.97;;;;;;;;;;5055817;28;20048;-57
2021/05/03 12:22:08;;;;;;;9.60;5.83;;;;;;;;;;5057955;28;20045;-58
2021/05/03 12:24:36;;;;;;;10.25;6.13;;;;;;;;;;5047032;28;20037;-58
2021/05/03 12:27:04;;;;;;;12.47;5.93;;;;;;;;;;5076394;28;20029;-58
2021/05/03 12:29:30;;;;;;;10.80;5.28;;;;;;;;;;5059854;28;20047;-55
2021/05/03 12:31:59;;;;;;;10.95;6.07;;;;;;;;;;5068449;28;20060;-52
2021/05/03 12:34:26;;;;;;;13.85;5.97;;;;;;;;;;5053341;28;20041;-58
2021/05/03 12:37:06;;;;;;;12.50;5.40;;;;;;;;;;5055027;28;20044;-58
2021/05/03 12:39:33;;;;;;;10.82;5.63;;;;;;;;;;5067729;28;20041;-58
2021/05/03 12:42:09;;;;;;;10.13;5.50;;;;;;;;;;5066459;28;20056;-58
2021/05/03 12:44:39;;;;;;;10.98;5.97;;;;;;;;;;5080247;28;20025;-57
2021/05/03 12:47:20;;;;;;;13.13;6.03;;;;;;;;;;5076239;28;20037;-56
2021/05/03 12:49:54;;;;;;;12.02;6.47;;;;;;;;;;5071769;28;20068;-55
2021/05/03 12:52:26;;;;;;;16.98;7.20;;;;;;;;;;5074695;28;20042;-57
2021/05/03 12:54:59;;;;;;;9.68;5.65;;;;;;;;;;5053087;28;20041;-57
2021/05/03 12:57:40;;;;;;;13.90;5.97;;;;;;;;;;5055094;28;20033;-58
2021/05/03 13:00:11;;;;;;;11.13;5.60;;;;;;;;;;5056800;28;20041;-57
2021/05/03 13:02:47;;;;;;;11.73;6.57;;;;;;;;;;5067927;28;20037;-57
2021/05/03 13:05:18;;;;;;;11.20;6.20;;;;;;;;;;5067904;28;20049;-60
2021/05/03 13:07:57;;;;;;;11.80;5.68;;;;;;;;;;5062252;28;20047;-60
2021/05/03 13:24:41;;;;;;;10.15;5.75;;;;;;;;;;5076356;28;20054;-60
2021/05/03 13:29:56;;;;;;;13.07;5.68;;;;;;;;;;5070576;28;20058;-59
2021/05/03 13:32:27;;;;;;;13.30;6.30;;;;;;;;;;5071940;28;20055;-58
2021/05/03 13:34:54;;;;;;;12.18;6.00;;;;;;;;;;5071066;28;20048;-57
2021/05/03 13:37:21;;;;;;;12.02;5.93;;;;;;;;;;5052489;28;20039;-57
2021/05/03 13:39:47;;;;;;;15.75;5.63;;;;;;;;;;5069601;28;20049;-60
2021/05/03 13:42:14;;;;;;;13.70;6.43;;;;;;;;;;5046304;28;20052;-58
2021/05/03 13:44:41;;;;;;;10.40;5.88;;;;;;;;;;5064939;28;20050;-59
2021/05/03 13:47:07;;;;;;;9.48;5.30;;;;;;;;;;5064545;28;20040;-58
2021/05/03 13:49:34;;;;;;;14.32;5.80;;;;;;;;;;5080746;28;20028;-58
2021/05/03 13:52:00;;;;;;;12.95;6.55;;;;;;;;;;5063850;28;20036;-58
2021/05/03 13:54:27;;;;;;;12.93;5.72;;;;;;;;;;5063114;28;20438;-59
2021/05/03 13:56:57;;;;;;;9.25;5.00;;;;;;;;;;5064220;28;20048;-57
2021/05/03 13:59:23;;;;;;;9.32;5.18;;;;;;;;;;5061109;28;20043;-58
2021/05/03 14:01:49;;;;;;;10.35;5.10;;;;;;;;;;5098867;28;20068;-56
2021/05/03 14:04:15;;;;;;;17.25;5.78;;;;;;;;;;5054880;28;20595;-58
2021/05/03 14:06:42;;;;;;;11.57;4.60;;;;;;;;;;5053688;28;20052;-55
2021/05/03 14:09:10;;;;;;;9.73;4.97;;;;;;;;;;5043190;28;20048;-59
2021/05/03 14:11:37;;;;;;;13.95;5.03;;;;;;;;;;5050946;28;20048;-58
2021/05/03 14:14:04;;;;;;;9.70;5.20;;;;;;;;;;5042508;28;20168;-57
2021/05/03 14:16:30;;;;;;;10.18;5.25;;;;;;;;;;5046139;28;20033;-60
2021/05/03 14:18:56;;;;;;;12.27;4.88;;;;;;;;;;5047115;28;20049;-59
2021/05/03 14:21:23;;;;;;;10.77;4.63;;;;;;;;;;5041102;28;20045;-55
2021/05/03 14:23:49;;;;;;;12.20;5.50;;;;;;;;;;5050661;28;20047;-59
2021/05/03 14:26:17;;;;;;;9.43;4.18;;;;;;;;;;5048297;28;20033;-56
2021/05/03 14:28:47;;;;;;;8.63;4.13;;;;;;;;;;5049373;28;20043;-56
2021/05/03 14:31:16;;;;;;;11.30;4.30;;;;;;;;;;5051776;28;20159;-58
2021/05/03 14:33:50;;;;;;;8.77;4.07;;;;;;;;;;5055926;28;20055;-54
2021/05/03 14:36:17;;;;;;;11.80;3.88;;;;;;;;;;5053716;28;20047;-54
2021/05/03 14:38:46;;;;;;;8.27;3.67;;;;;;;;;;5041509;28;20029;-55
2021/05/03 14:41:12;;;;;;;8.32;3.40;;;;;;;;;;5046791;28;20029;-52
2021/05/03 14:43:38;;;;;;;8.65;3.50;;;;;;;;;;5050220;28;20049;-59
2021/05/03 14:46:09;;;;;;;7.03;3.20;;;;;;;;;;5055588;28;20025;-58
2021/05/03 14:48:39;;;;;;;8.80;3.60;;;;;;;;;;5059955;28;20040;-57
2021/05/03 14:51:33;;;;;;;6.80;3.50;;;;;;;;;;5051947;28;20037;-57
2021/05/03 14:54:11;;;;;;;7.07;3.58;;;;;;;;;;5057868;28;20069;-59
2021/05/03 14:56:38;;;;;;;6.47;3.53;;;;;;;;;;5049201;28;20056;-65
